EGCNEGKB

Guest
Details From EGCN - Doncaster Sheffield
To EGKB - Biggin Hill
Flight Number -
Tags generated
Created
Modified
Stats Distance 135 nm / 249 km
Max Altitude 9,400 ft / 2,865 m
Waypoints 3
Social Downloads 1
Likes 0
Share VATSIM

Download

Looking for another format? Having issues loading an existing format? Contact us
Advertisement - Login to hide

Notes

Basic altitude profile: - Ascent Rate: 2000ft/min - Ascent Speed: 220kts - Cruise Altitude: 19000ft - Cruise Speed: 240kts - Descent Rate: 1800ft/min - Descent Speed: 250kts Options: - Use NATs: no - Use PACOTS: no - Use low airways: no - Use high airways: yes

Route

EGCN POTON EGKB

ID Type Via Altitude Latitude Longitude Leg Dist Tot Dist Heading (true) Name
O EGCN APT - 0 ft / 0 m 53.47465˚ -1.00447˚ - 0 nm - Doncaster Sheffield
POTON FIX - 9,400 ft / 2,865 m 52.08444˚ -0.42722˚ 86 nm 86 nm 166° / 166° -
O EGKB APT - 0 ft / 0 m 51.32671˚ 0.03288˚ 48 nm 134 nm 159° / 160° Biggin Hill

Altitude Profile

Advertisement - Login to hide

EGCN

Details ICAO EGCN (DSA)
Name Doncaster Sheffield
Region United Kingdom
Timezone Europe/London (UTC+1.0)
Stats Elevation 55 ft / 17 m (AMSL)
Location 53.474649° -1.004474°
Runways 1
Magnetic Variation 0.928° W

METAR

EGCN 270820Z 04007KT 010V070 CAVOK 19/14 Q1020

Decode

TAF

TAF EGCN 270459Z 2706/2806 35008KT 9999 FEW045 BECMG 2706/2709 07012KT PROB30 TEMPO 2706/2717 7000 SHRA PROB30 2723/2806 4000 BR BKN004 BECMG 2800/2803 01009KT

Decode

Departure Runways

ID Width Length Bearing (true) Bearing (mag) Surface Threshold Offset Overrun Length
02 197 ft / 60 m 8,975 ft / 2,736 m 17.62° 18.55° Asphalt 486 ft / 148 m 13 ft / 4 m
20 197 ft / 60 m 8,975 ft / 2,736 m 197.63° 198.56° Asphalt 0 ft / 0 m 0 ft / 0 m

EGKB

Details ICAO EGKB (BQH)
Name Biggin Hill
Region United Kingdom
Timezone Europe/London (UTC+1.0)
Stats Elevation 598 ft / 182 m (AMSL)
Location 51.326710° 0.032876°
Runways 2
Magnetic Variation 0.308° W

METAR

EGKB 270820Z 04005KT 5000 HZ NSC 18/16 Q1015

Decode

TAF

Not found

Destination Runways

ID Width Length Bearing (true) Bearing (mag) Surface Threshold Offset Overrun Length
03 148 ft / 45 m 5,915 ft / 1,803 m 25.53° 25.84° Asphalt 804 ft / 245 m 0 ft / 0 m
11 59 ft / 18 m 2,579 ft / 786 m 105.47° 105.78° Asphalt 0 ft / 0 m 0 ft / 0 m
21 148 ft / 45 m 5,915 ft / 1,803 m 205.53° 205.84° Asphalt 0 ft / 0 m 0 ft / 0 m
29 59 ft / 18 m 2,579 ft / 786 m 285.48° 285.79° Asphalt 0 ft / 0 m 0 ft / 0 m

Approach Navaids

Runway Type Ident Frequency Range Bearing (true) Bearing (mag) Slope Elevation
21 Localiser IBGH 109.35 MHz 18 nm / 33 km 205.65° 205.96° - 598 ft / 182 m (AMSL)
21 Glidescope IBGH 109.35 MHz 10 nm / 19 km 205.53° 205.84° 3.00° 598 ft / 182 m (AMSL)
21 DME IBGH 109.35 MHz 18 nm / 33 km - - - 570 ft / 174 m (AMSL)

Popular Alternatives